Terminal Aerodrome Forecast
Issued by NWS

Home | Current Version | Previous Version | Text Only | Print | Product List | Glossary On
Versions: 1 2 3 4 5 6 7 8 9 10 11 12 13 14 15 16 17 18
000
FTUS43 KAPX 251743
TAFAPN
TAF
KAPN 251743Z 2518/2618 01007KT P6SM VCSH BKN050
      TEMPO 2518/2522 VRB05KT 4SM -SHRA SCT025 OVC040
     FM252200 01007KT P6SM VCSH BKN050
     FM260100 VRB03KT P6SM BKN035
     FM260900 00000KT P6SM VCSH OVC070
     FM261400 21004KT P6SM VCSH OVC015
     FM261700 23005KT P6SM VCSH BKN025=

USA.gov is the U.S. government's official web portal to all federal, state and local government web resources and services.